sensor_id;sensor_type;location;lat;lon;timestamp;temperature;humidity
21635;DHT22;10979;48.306;9.830;2023-03-30T00:01:14;10.50;99.90
21635;DHT22;10979;48.306;9.830;2023-03-30T00:03:42;10.60;99.90
21635;DHT22;10979;48.306;9.830;2023-03-30T00:06:10;10.60;99.90
21635;DHT22;10979;48.306;9.830;2023-03-30T00:08:37;10.70;99.90
21635;DHT22;10979;48.306;9.830;2023-03-30T00:13:31;10.60;99.90
21635;DHT22;10979;48.306;9.830;2023-03-30T00:15:56;10.60;99.90
21635;DHT22;10979;48.306;9.830;2023-03-30T00:18:22;10.60;99.90
21635;DHT22;10979;48.306;9.830;2023-03-30T00:20:48;10.50;99.90
21635;DHT22;10979;48.306;9.830;2023-03-30T00:23:15;10.50;99.90
21635;DHT22;10979;48.306;9.830;2023-03-30T00:25:41;10.50;99.90
21635;DHT22;10979;48.306;9.830;2023-03-30T00:28:07;10.50;99.90
21635;DHT22;10979;48.306;9.830;2023-03-30T00:30:32;10.50;99.90
21635;DHT22;10979;48.306;9.830;2023-03-30T00:32:58;10.60;99.90
21635;DHT22;10979;48.306;9.830;2023-03-30T00:35:24;10.50;99.90
21635;DHT22;10979;48.306;9.830;2023-03-30T00:37:51;10.40;99.90
21635;DHT22;10979;48.306;9.830;2023-03-30T00:40:19;10.40;99.90
21635;DHT22;10979;48.306;9.830;2023-03-30T00:42:45;10.40;99.90
21635;DHT22;10979;48.306;9.830;2023-03-30T00:45:14;10.50;99.90
21635;DHT22;10979;48.306;9.830;2023-03-30T00:50:26;10.50;99.90
21635;DHT22;10979;48.306;9.830;2023-03-30T00:52:55;10.30;99.90
21635;DHT22;10979;48.306;9.830;2023-03-30T00:55:23;10.20;99.90
21635;DHT22;10979;48.306;9.830;2023-03-30T00:57:53;10.10;99.90
21635;DHT22;10979;48.306;9.830;2023-03-30T01:00:19;10.00;99.90
21635;DHT22;10979;48.306;9.830;2023-03-30T01:02:49;9.90;99.90
21635;DHT22;10979;48.306;9.830;2023-03-30T01:05:17;9.90;99.90
21635;DHT22;10979;48.306;9.830;2023-03-30T01:07:43;9.80;99.90
21635;DHT22;10979;48.306;9.830;2023-03-30T01:10:11;9.80;99.90
21635;DHT22;10979;48.306;9.830;2023-03-30T01:12:37;9.80;99.90
21635;DHT22;10979;48.306;9.830;2023-03-30T01:15:05;9.70;99.90
21635;DHT22;10979;48.306;9.830;2023-03-30T01:20:46;9.70;99.90
21635;DHT22;10979;48.306;9.830;2023-03-30T01:26:32;9.80;99.90
21635;DHT22;10979;48.306;9.830;2023-03-30T01:34:43;9.60;99.90
21635;DHT22;10979;48.306;9.830;2023-03-30T01:40:08;9.60;99.90
21635;DHT22;10979;48.306;9.830;2023-03-30T01:42:45;9.50;99.90
21635;DHT22;10979;48.306;9.830;2023-03-30T01:45:32;9.60;99.90
21635;DHT22;10979;48.306;9.830;2023-03-30T01:50:40;9.60;99.90
21635;DHT22;10979;48.306;9.830;2023-03-30T01:53:13;9.60;99.90
21635;DHT22;10979;48.306;9.830;2023-03-30T01:55:47;9.60;99.90
21635;DHT22;10979;48.306;9.830;2023-03-30T02:01:03;9.70;99.90
21635;DHT22;10979;48.306;9.830;2023-03-30T02:03:32;9.70;99.90
21635;DHT22;10979;48.306;9.830;2023-03-30T02:06:11;9.70;99.90
21635;DHT22;10979;48.306;9.830;2023-03-30T02:08:38;9.90;99.90
21635;DHT22;10979;48.306;9.830;2023-03-30T02:11:05;9.90;99.90
21635;DHT22;10979;48.306;9.830;2023-03-30T02:13:32;9.90;99.90
21635;DHT22;10979;48.306;9.830;2023-03-30T02:16:02;9.80;99.90
21635;DHT22;10979;48.306;9.830;2023-03-30T02:18:30;9.80;99.90
21635;DHT22;10979;48.306;9.830;2023-03-30T02:20:55;9.70;99.90
21635;DHT22;10979;48.306;9.830;2023-03-30T02:23:26;9.70;99.90
21635;DHT22;10979;48.306;9.830;2023-03-30T02:25:53;9.60;99.90
21635;DHT22;10979;48.306;9.830;2023-03-30T02:28:19;9.60;99.90
21635;DHT22;10979;48.306;9.830;2023-03-30T02:30:45;9.60;99.90
21635;DHT22;10979;48.306;9.830;2023-03-30T02:39:23;9.50;99.90
21635;DHT22;10979;48.306;9.830;2023-03-30T02:45:13;9.50;99.90
21635;DHT22;10979;48.306;9.830;2023-03-30T02:50:37;9.40;99.90
21635;DHT22;10979;48.306;9.830;2023-03-30T02:58:52;9.50;99.90
21635;DHT22;10979;48.306;9.830;2023-03-30T03:01:31;9.50;99.90
21635;DHT22;10979;48.306;9.830;2023-03-30T03:03:59;9.50;99.90
21635;DHT22;10979;48.306;9.830;2023-03-30T03:06:27;9.60;99.90
21635;DHT22;10979;48.306;9.830;2023-03-30T03:08:54;9.50;99.90
21635;DHT22;10979;48.306;9.830;2023-03-30T03:11:20;9.50;99.90
21635;DHT22;10979;48.306;9.830;2023-03-30T03:13:46;9.60;99.90
21635;DHT22;10979;48.306;9.830;2023-03-30T03:16:12;9.60;99.90
21635;DHT22;10979;48.306;9.830;2023-03-30T03:18:38;9.60;99.90
21635;DHT22;10979;48.306;9.830;2023-03-30T03:21:06;9.60;99.90
21635;DHT22;10979;48.306;9.830;2023-03-30T03:23:32;9.60;99.90
21635;DHT22;10979;48.306;9.830;2023-03-30T03:25:58;9.60;99.90
21635;DHT22;10979;48.306;9.830;2023-03-30T03:28:24;9.60;99.90
21635;DHT22;10979;48.306;9.830;2023-03-30T03:30:50;9.60;99.90
21635;DHT22;10979;48.306;9.830;2023-03-30T03:33:16;9.60;99.90
21635;DHT22;10979;48.306;9.830;2023-03-30T03:35:44;9.60;99.90
21635;DHT22;10979;48.306;9.830;2023-03-30T03:38:11;9.50;99.90
21635;DHT22;10979;48.306;9.830;2023-03-30T03:40:37;9.50;99.90
21635;DHT22;10979;48.306;9.830;2023-03-30T03:43:02;9.50;99.90
21635;DHT22;10979;48.306;9.830;2023-03-30T03:45:28;9.50;99.90
21635;DHT22;10979;48.306;9.830;2023-03-30T03:47:54;9.50;99.90
21635;DHT22;10979;48.306;9.830;2023-03-30T03:50:19;9.50;99.90
21635;DHT22;10979;48.306;9.830;2023-03-30T03:52:45;9.50;99.90
21635;DHT22;10979;48.306;9.830;2023-03-30T03:55:11;9.50;99.90
21635;DHT22;10979;48.306;9.830;2023-03-30T03:57:37;9.50;99.90
21635;DHT22;10979;48.306;9.830;2023-03-30T04:00:04;9.40;99.90
21635;DHT22;10979;48.306;9.830;2023-03-30T04:02:40;9.40;99.90
21635;DHT22;10979;48.306;9.830;2023-03-30T04:05:06;9.30;99.90
21635;DHT22;10979;48.306;9.830;2023-03-30T04:07:32;9.20;99.90
21635;DHT22;10979;48.306;9.830;2023-03-30T04:09:58;9.20;99.90
21635;DHT22;10979;48.306;9.830;2023-03-30T04:12:24;9.10;99.90
21635;DHT22;10979;48.306;9.830;2023-03-30T04:14:49;9.10;99.90
21635;DHT22;10979;48.306;9.830;2023-03-30T04:17:15;9.10;99.90
21635;DHT22;10979;48.306;9.830;2023-03-30T04:19:40;9.00;99.90
21635;DHT22;10979;48.306;9.830;2023-03-30T04:22:06;9.00;99.90
21635;DHT22;10979;48.306;9.830;2023-03-30T04:24:32;9.10;99.90
21635;DHT22;10979;48.306;9.830;2023-03-30T04:27:00;9.20;99.90
21635;DHT22;10979;48.306;9.830;2023-03-30T04:29:26;9.30;99.90
21635;DHT22;10979;48.306;9.830;2023-03-30T04:31:51;9.30;99.90
21635;DHT22;10979;48.306;9.830;2023-03-30T04:34:17;9.20;99.90
21635;DHT22;10979;48.306;9.830;2023-03-30T04:36:47;9.20;99.90
21635;DHT22;10979;48.306;9.830;2023-03-30T04:39:12;9.10;99.90
21635;DHT22;10979;48.306;9.830;2023-03-30T04:41:38;9.10;99.90
21635;DHT22;10979;48.306;9.830;2023-03-30T04:44:08;9.00;99.90
21635;DHT22;10979;48.306;9.830;2023-03-30T04:46:34;9.00;99.90
21635;DHT22;10979;48.306;9.830;2023-03-30T04:49:00;8.90;99.90
21635;DHT22;10979;48.306;9.830;2023-03-30T04:51:26;8.90;99.90
21635;DHT22;10979;48.306;9.830;2023-03-30T04:53:52;8.90;99.90
21635;DHT22;10979;48.306;9.830;2023-03-30T04:56:18;9.00;99.90
21635;DHT22;10979;48.306;9.830;2023-03-30T04:58:44;8.90;99.90
21635;DHT22;10979;48.306;9.830;2023-03-30T05:01:09;8.80;99.90
21635;DHT22;10979;48.306;9.830;2023-03-30T05:03:35;8.80;99.90
21635;DHT22;10979;48.306;9.830;2023-03-30T05:06:01;8.80;99.90
21635;DHT22;10979;48.306;9.830;2023-03-30T05:08:27;8.70;99.90
21635;DHT22;10979;48.306;9.830;2023-03-30T05:10:52;8.70;99.90
21635;DHT22;10979;48.306;9.830;2023-03-30T05:13:18;8.70;99.90
21635;DHT22;10979;48.306;9.830;2023-03-30T05:15:43;8.60;99.90
21635;DHT22;10979;48.306;9.830;2023-03-30T05:18:09;8.70;99.90
21635;DHT22;10979;48.306;9.830;2023-03-30T05:20:35;8.70;99.90
21635;DHT22;10979;48.306;9.830;2023-03-30T05:23:01;8.70;99.90
21635;DHT22;10979;48.306;9.830;2023-03-30T05:25:26;8.60;99.90
21635;DHT22;10979;48.306;9.830;2023-03-30T05:27:52;8.60;99.90
21635;DHT22;10979;48.306;9.830;2023-03-30T05:30:18;8.70;99.90
21635;DHT22;10979;48.306;9.830;2023-03-30T05:32:43;8.70;99.90
21635;DHT22;10979;48.306;9.830;2023-03-30T05:35:09;8.60;99.90
21635;DHT22;10979;48.306;9.830;2023-03-30T05:37:36;8.70;99.90
21635;DHT22;10979;48.306;9.830;2023-03-30T05:40:02;8.70;99.90
21635;DHT22;10979;48.306;9.830;2023-03-30T05:42:31;8.60;99.90
21635;DHT22;10979;48.306;9.830;2023-03-30T05:44:57;8.60;99.90
21635;DHT22;10979;48.306;9.830;2023-03-30T05:47:22;8.60;99.90
21635;DHT22;10979;48.306;9.830;2023-03-30T05:49:49;8.70;99.90
21635;DHT22;10979;48.306;9.830;2023-03-30T05:52:14;8.70;99.90
21635;DHT22;10979;48.306;9.830;2023-03-30T05:54:40;8.70;99.90
21635;DHT22;10979;48.306;9.830;2023-03-30T05:57:06;8.70;99.90
21635;DHT22;10979;48.306;9.830;2023-03-30T05:59:31;8.70;99.90
21635;DHT22;10979;48.306;9.830;2023-03-30T06:01:57;8.80;99.90
21635;DHT22;10979;48.306;9.830;2023-03-30T06:04:23;8.90;99.90
21635;DHT22;10979;48.306;9.830;2023-03-30T06:06:48;8.80;99.90
21635;DHT22;10979;48.306;9.830;2023-03-30T06:09:14;8.90;99.90
21635;DHT22;10979;48.306;9.830;2023-03-30T06:11:40;8.90;99.90
21635;DHT22;10979;48.306;9.830;2023-03-30T06:14:05;8.90;99.90
21635;DHT22;10979;48.306;9.830;2023-03-30T06:16:31;8.90;99.90
21635;DHT22;10979;48.306;9.830;2023-03-30T06:18:56;8.90;99.90
21635;DHT22;10979;48.306;9.830;2023-03-30T06:21:22;8.90;99.90
21635;DHT22;10979;48.306;9.830;2023-03-30T06:23:47;8.90;99.90
21635;DHT22;10979;48.306;9.830;2023-03-30T06:26:13;8.90;99.90
21635;DHT22;10979;48.306;9.830;2023-03-30T06:28:39;8.90;99.90
21635;DHT22;10979;48.306;9.830;2023-03-30T06:31:09;8.90;99.90
21635;DHT22;10979;48.306;9.830;2023-03-30T06:33:35;9.00;99.90
21635;DHT22;10979;48.306;9.830;2023-03-30T06:36:02;9.00;99.90
21635;DHT22;10979;48.306;9.830;2023-03-30T06:38:28;9.00;99.90
21635;DHT22;10979;48.306;9.830;2023-03-30T06:40:54;9.00;99.90
21635;DHT22;10979;48.306;9.830;2023-03-30T06:43:22;9.00;99.90
21635;DHT22;10979;48.306;9.830;2023-03-30T06:45:52;9.00;99.90
21635;DHT22;10979;48.306;9.830;2023-03-30T06:48:19;9.00;99.90
21635;DHT22;10979;48.306;9.830;2023-03-30T06:50:45;9.10;99.90
21635;DHT22;10979;48.306;9.830;2023-03-30T06:53:11;9.10;99.90
21635;DHT22;10979;48.306;9.830;2023-03-30T06:55:37;9.20;99.90
21635;DHT22;10979;48.306;9.830;2023-03-30T06:58:03;9.40;99.90
21635;DHT22;10979;48.306;9.830;2023-03-30T07:00:28;9.70;99.90
21635;DHT22;10979;48.306;9.830;2023-03-30T07:02:54;10.20;99.90
21635;DHT22;10979;48.306;9.830;2023-03-30T07:05:20;10.60;99.90
21635;DHT22;10979;48.306;9.830;2023-03-30T07:07:49;11.30;99.90
21635;DHT22;10979;48.306;9.830;2023-03-30T07:10:16;12.90;99.90
21635;DHT22;10979;48.306;9.830;2023-03-30T07:12:41;12.40;99.90
21635;DHT22;10979;48.306;9.830;2023-03-30T07:15:08;11.60;99.90
21635;DHT22;10979;48.306;9.830;2023-03-30T07:17:35;11.30;99.90
21635;DHT22;10979;48.306;9.830;2023-03-30T07:20:02;10.90;99.90
21635;DHT22;10979;48.306;9.830;2023-03-30T07:22:28;10.80;99.90
21635;DHT22;10979;48.306;9.830;2023-03-30T07:24:54;10.60;99.90
21635;DHT22;10979;48.306;9.830;2023-03-30T07:27:20;10.60;99.90
21635;DHT22;10979;48.306;9.830;2023-03-30T07:29:49;10.70;99.90
21635;DHT22;10979;48.306;9.830;2023-03-30T07:32:15;10.60;99.90
21635;DHT22;10979;48.306;9.830;2023-03-30T07:34:41;10.70;99.90
21635;DHT22;10979;48.306;9.830;2023-03-30T07:37:06;11.00;99.90
21635;DHT22;10979;48.306;9.830;2023-03-30T07:39:32;11.40;99.90
21635;DHT22;10979;48.306;9.830;2023-03-30T07:41:58;11.40;99.90
21635;DHT22;10979;48.306;9.830;2023-03-30T07:44:24;11.40;99.90
21635;DHT22;10979;48.306;9.830;2023-03-30T07:46:53;11.40;99.90
21635;DHT22;10979;48.306;9.830;2023-03-30T07:49:19;11.40;99.90
21635;DHT22;10979;48.306;9.830;2023-03-30T07:51:45;11.30;99.90
21635;DHT22;10979;48.306;9.830;2023-03-30T07:54:12;11.30;99.90
21635;DHT22;10979;48.306;9.830;2023-03-30T07:56:38;11.30;99.90
21635;DHT22;10979;48.306;9.830;2023-03-30T07:59:04;11.50;99.90
21635;DHT22;10979;48.306;9.830;2023-03-30T08:01:32;11.40;99.90
21635;DHT22;10979;48.306;9.830;2023-03-30T08:03:58;11.50;99.90
21635;DHT22;10979;48.306;9.830;2023-03-30T08:06:25;11.70;99.90
21635;DHT22;10979;48.306;9.830;2023-03-30T08:08:51;11.90;99.90
21635;DHT22;10979;48.306;9.830;2023-03-30T08:11:16;12.40;99.90
21635;DHT22;10979;48.306;9.830;2023-03-30T08:13:42;12.50;99.90
21635;DHT22;10979;48.306;9.830;2023-03-30T08:16:09;12.40;99.90
21635;DHT22;10979;48.306;9.830;2023-03-30T08:18:35;12.80;99.90
21635;DHT22;10979;48.306;9.830;2023-03-30T08:21:01;13.10;99.90
21635;DHT22;10979;48.306;9.830;2023-03-30T08:23:27;13.00;99.90
21635;DHT22;10979;48.306;9.830;2023-03-30T08:25:57;12.70;99.90
21635;DHT22;10979;48.306;9.830;2023-03-30T08:28:22;12.70;99.90
21635;DHT22;10979;48.306;9.830;2023-03-30T08:30:48;12.80;99.90
21635;DHT22;10979;48.306;9.830;2023-03-30T08:33:14;13.20;99.90
21635;DHT22;10979;48.306;9.830;2023-03-30T08:35:42;12.90;99.90
21635;DHT22;10979;48.306;9.830;2023-03-30T08:38:08;12.90;99.90
21635;DHT22;10979;48.306;9.830;2023-03-30T08:40:39;12.90;99.90
21635;DHT22;10979;48.306;9.830;2023-03-30T08:45:50;12.50;99.90
21635;DHT22;10979;48.306;9.830;2023-03-30T08:48:22;12.40;99.90
21635;DHT22;10979;48.306;9.830;2023-03-30T08:51:14;12.30;99.90
21635;DHT22;10979;48.306;9.830;2023-03-30T08:53:40;12.50;99.90
21635;DHT22;10979;48.306;9.830;2023-03-30T08:56:20;12.80;99.90
21635;DHT22;10979;48.306;9.830;2023-03-30T09:06:59;12.40;99.90
21635;DHT22;10979;48.306;9.830;2023-03-30T09:09:30;12.30;99.90
21635;DHT22;10979;48.306;9.830;2023-03-30T09:12:21;12.20;99.90
21635;DHT22;10979;48.306;9.830;2023-03-30T09:15:20;12.30;99.90
21635;DHT22;10979;48.306;9.830;2023-03-30T09:17:51;12.40;99.90
21635;DHT22;10979;48.306;9.830;2023-03-30T09:20:32;12.70;99.90
21635;DHT22;10979;48.306;9.830;2023-03-30T09:23:01;12.60;99.90
21635;DHT22;10979;48.306;9.830;2023-03-30T09:25:42;12.30;99.90
21635;DHT22;10979;48.306;9.830;2023-03-30T09:30:51;12.20;99.90
21635;DHT22;10979;48.306;9.830;2023-03-30T09:39:08;13.80;99.90
21635;DHT22;10979;48.306;9.830;2023-03-30T09:47:24;12.50;99.90
21635;DHT22;10979;48.306;9.830;2023-03-30T09:49:58;12.30;99.90
21635;DHT22;10979;48.306;9.830;2023-03-30T09:52:26;12.20;99.90
21635;DHT22;10979;48.306;9.830;2023-03-30T09:54:52;12.10;99.90
21635;DHT22;10979;48.306;9.830;2023-03-30T09:57:29;12.00;99.90
21635;DHT22;10979;48.306;9.830;2023-03-30T09:59:58;11.90;99.90
21635;DHT22;10979;48.306;9.830;2023-03-30T10:02:26;11.90;99.90
21635;DHT22;10979;48.306;9.830;2023-03-30T10:07:27;11.80;99.90
21635;DHT22;10979;48.306;9.830;2023-03-30T10:09:54;11.70;99.90
21635;DHT22;10979;48.306;9.830;2023-03-30T10:12:20;11.50;99.90
21635;DHT22;10979;48.306;9.830;2023-03-30T10:14:53;11.40;99.90
21635;DHT22;10979;48.306;9.830;2023-03-30T10:17:22;11.40;99.90
21635;DHT22;10979;48.306;9.830;2023-03-30T10:19:52;11.30;99.90
21635;DHT22;10979;48.306;9.830;2023-03-30T10:22:19;11.20;99.90
21635;DHT22;10979;48.306;9.830;2023-03-30T10:24:50;11.20;99.90
21635;DHT22;10979;48.306;9.830;2023-03-30T10:27:17;11.10;99.90
21635;DHT22;10979;48.306;9.830;2023-03-30T10:29:47;11.10;99.90
21635;DHT22;10979;48.306;9.830;2023-03-30T10:32:20;11.00;99.90
21635;DHT22;10979;48.306;9.830;2023-03-30T10:34:51;11.00;99.90
21635;DHT22;10979;48.306;9.830;2023-03-30T10:37:32;10.90;99.90
21635;DHT22;10979;48.306;9.830;2023-03-30T10:40:00;10.80;99.90
21635;DHT22;10979;48.306;9.830;2023-03-30T10:42:28;10.80;99.90
21635;DHT22;10979;48.306;9.830;2023-03-30T10:44:58;10.80;99.90
21635;DHT22;10979;48.306;9.830;2023-03-30T10:50:02;11.00;99.90
21635;DHT22;10979;48.306;9.830;2023-03-30T10:53:24;11.10;99.90
21635;DHT22;10979;48.306;9.830;2023-03-30T10:55:40;11.10;99.90
21635;DHT22;10979;48.306;9.830;2023-03-30T10:58:29;11.10;99.90
21635;DHT22;10979;48.306;9.830;2023-03-30T11:03:32;11.10;99.90
21635;DHT22;10979;48.306;9.830;2023-03-30T11:06:16;11.10;99.90
21635;DHT22;10979;48.306;9.830;2023-03-30T11:08:47;11.40;99.90
21635;DHT22;10979;48.306;9.830;2023-03-30T11:11:44;11.40;99.90
21635;DHT22;10979;48.306;9.830;2023-03-30T11:14:11;11.50;99.90
21635;DHT22;10979;48.306;9.830;2023-03-30T11:16:58;11.80;99.90
21635;DHT22;10979;48.306;9.830;2023-03-30T11:19:37;11.70;99.90
21635;DHT22;10979;48.306;9.830;2023-03-30T11:22:10;11.60;99.90
21635;DHT22;10979;48.306;9.830;2023-03-30T11:24:40;11.90;99.90
21635;DHT22;10979;48.306;9.830;2023-03-30T11:27:43;12.30;99.90
21635;DHT22;10979;48.306;9.830;2023-03-30T11:30:18;12.30;99.90
21635;DHT22;10979;48.306;9.830;2023-03-30T11:33:01;12.10;99.90
21635;DHT22;10979;48.306;9.830;2023-03-30T11:35:52;12.10;99.90
21635;DHT22;10979;48.306;9.830;2023-03-30T11:38:25;12.10;99.90
21635;DHT22;10979;48.306;9.830;2023-03-30T11:40:57;12.10;99.90
21635;DHT22;10979;48.306;9.830;2023-03-30T11:43:24;11.90;99.90
21635;DHT22;10979;48.306;9.830;2023-03-30T11:51:13;11.60;99.90
21635;DHT22;10979;48.306;9.830;2023-03-30T11:54:06;11.50;99.90
21635;DHT22;10979;48.306;9.830;2023-03-30T11:56:46;11.60;99.90
21635;DHT22;10979;48.306;9.830;2023-03-30T12:10:40;11.40;99.90
21635;DHT22;10979;48.306;9.830;2023-03-30T12:13:15;11.40;99.90
21635;DHT22;10979;48.306;9.830;2023-03-30T12:15:54;11.40;99.90
21635;DHT22;10979;48.306;9.830;2023-03-30T12:19:10;11.50;99.90
21635;DHT22;10979;48.306;9.830;2023-03-30T12:24:12;11.70;99.90
21635;DHT22;10979;48.306;9.830;2023-03-30T12:26:41;11.90;99.90
21635;DHT22;10979;48.306;9.830;2023-03-30T12:29:13;11.90;99.90
21635;DHT22;10979;48.306;9.830;2023-03-30T12:34:20;11.70;99.90
21635;DHT22;10979;48.306;9.830;2023-03-30T12:36:47;11.70;99.90
21635;DHT22;10979;48.306;9.830;2023-03-30T12:39:19;11.70;99.90
21635;DHT22;10979;48.306;9.830;2023-03-30T12:42:18;11.60;99.90
21635;DHT22;10979;48.306;9.830;2023-03-30T12:45:18;11.50;99.90
21635;DHT22;10979;48.306;9.830;2023-03-30T12:50:27;11.60;99.90
21635;DHT22;10979;48.306;9.830;2023-03-30T12:56:03;12.00;99.90
21635;DHT22;10979;48.306;9.830;2023-03-30T13:04:11;12.20;99.90
21635;DHT22;10979;48.306;9.830;2023-03-30T13:07:02;12.30;99.90
21635;DHT22;10979;48.306;9.830;2023-03-30T13:09:32;12.60;99.90
21635;DHT22;10979;48.306;9.830;2023-03-30T13:24:43;12.90;99.90
21635;DHT22;10979;48.306;9.830;2023-03-30T13:30:09;13.20;99.90
21635;DHT22;10979;48.306;9.830;2023-03-30T13:32:53;13.30;99.90
21635;DHT22;10979;48.306;9.830;2023-03-30T13:38:26;13.40;99.90
21635;DHT22;10979;48.306;9.830;2023-03-30T13:41:03;13.50;99.90
21635;DHT22;10979;48.306;9.830;2023-03-30T13:47:13;13.10;99.90
21635;DHT22;10979;48.306;9.830;2023-03-30T13:50:02;13.00;99.90
21635;DHT22;10979;48.306;9.830;2023-03-30T13:52:33;13.20;99.90
21635;DHT22;10979;48.306;9.830;2023-03-30T13:55:02;13.20;99.90
21635;DHT22;10979;48.306;9.830;2023-03-30T13:57:35;13.20;99.90
21635;DHT22;10979;48.306;9.830;2023-03-30T14:02:40;14.70;99.90
21635;DHT22;10979;48.306;9.830;2023-03-30T14:05:17;14.40;99.90
21635;DHT22;10979;48.306;9.830;2023-03-30T14:07:45;13.90;99.90
21635;DHT22;10979;48.306;9.830;2023-03-30T14:10:18;14.10;99.90
21635;DHT22;10979;48.306;9.830;2023-03-30T14:12:47;14.00;99.90
21635;DHT22;10979;48.306;9.830;2023-03-30T14:15:27;14.30;99.90
21635;DHT22;10979;48.306;9.830;2023-03-30T14:17:58;14.10;99.90
21635;DHT22;10979;48.306;9.830;2023-03-30T14:23:19;13.60;99.90
21635;DHT22;10979;48.306;9.830;2023-03-30T14:25:47;13.70;99.90
21635;DHT22;10979;48.306;9.830;2023-03-30T14:28:17;13.90;99.90
21635;DHT22;10979;48.306;9.830;2023-03-30T14:30:57;13.90;99.90
21635;DHT22;10979;48.306;9.830;2023-03-30T14:33:23;14.00;99.90
21635;DHT22;10979;48.306;9.830;2023-03-30T14:35:52;14.20;99.90
21635;DHT22;10979;48.306;9.830;2023-03-30T14:38:30;14.20;99.90
21635;DHT22;10979;48.306;9.830;2023-03-30T14:40:59;13.90;99.90
21635;DHT22;10979;48.306;9.830;2023-03-30T14:43:28;13.90;99.90
21635;DHT22;10979;48.306;9.830;2023-03-30T14:45:56;13.70;99.90
21635;DHT22;10979;48.306;9.830;2023-03-30T14:48:35;13.70;99.90
21635;DHT22;10979;48.306;9.830;2023-03-30T14:51:03;13.70;99.90
21635;DHT22;10979;48.306;9.830;2023-03-30T14:53:32;13.40;99.90
21635;DHT22;10979;48.306;9.830;2023-03-30T14:55:59;13.30;99.90
21635;DHT22;10979;48.306;9.830;2023-03-30T14:58:29;13.40;99.90
21635;DHT22;10979;48.306;9.830;2023-03-30T15:00:58;13.70;99.90
21635;DHT22;10979;48.306;9.830;2023-03-30T15:03:27;13.60;99.90
21635;DHT22;10979;48.306;9.830;2023-03-30T15:05:54;13.40;99.90
21635;DHT22;10979;48.306;9.830;2023-03-30T15:08:31;13.60;99.90
21635;DHT22;10979;48.306;9.830;2023-03-30T15:11:00;13.90;99.90
21635;DHT22;10979;48.306;9.830;2023-03-30T15:13:34;13.90;99.90
21635;DHT22;10979;48.306;9.830;2023-03-30T15:16:01;13.70;99.90
21635;DHT22;10979;48.306;9.830;2023-03-30T15:18:29;13.50;99.90
21635;DHT22;10979;48.306;9.830;2023-03-30T15:20:57;13.40;99.90
21635;DHT22;10979;48.306;9.830;2023-03-30T15:23:24;13.60;99.90
21635;DHT22;10979;48.306;9.830;2023-03-30T15:25:57;13.70;99.90
21635;DHT22;10979;48.306;9.830;2023-03-30T15:28:23;13.70;99.90
21635;DHT22;10979;48.306;9.830;2023-03-30T15:30:52;13.50;99.90
21635;DHT22;10979;48.306;9.830;2023-03-30T15:33:35;13.30;99.90
21635;DHT22;10979;48.306;9.830;2023-03-30T15:39:26;13.20;99.90
21635;DHT22;10979;48.306;9.830;2023-03-30T15:44:26;13.10;99.90
21635;DHT22;10979;48.306;9.830;2023-03-30T15:46:56;13.20;99.90
21635;DHT22;10979;48.306;9.830;2023-03-30T15:50:00;13.30;99.90
21635;DHT22;10979;48.306;9.830;2023-03-30T15:52:22;13.30;99.90
21635;DHT22;10979;48.306;9.830;2023-03-30T15:54:51;13.20;99.90
21635;DHT22;10979;48.306;9.830;2023-03-30T15:57:22;13.20;99.90
21635;DHT22;10979;48.306;9.830;2023-03-30T15:59:59;13.30;99.90
21635;DHT22;10979;48.306;9.830;2023-03-30T16:05:00;13.60;99.90
21635;DHT22;10979;48.306;9.830;2023-03-30T16:07:26;13.70;99.90
21635;DHT22;10979;48.306;9.830;2023-03-30T16:09:53;13.90;99.90
21635;DHT22;10979;48.306;9.830;2023-03-30T16:12:24;14.00;99.90
21635;DHT22;10979;48.306;9.830;2023-03-30T16:14:51;13.90;99.90
21635;DHT22;10979;48.306;9.830;2023-03-30T16:17:17;13.70;99.90
21635;DHT22;10979;48.306;9.830;2023-03-30T16:19:43;13.50;99.90
21635;DHT22;10979;48.306;9.830;2023-03-30T16:22:09;13.20;99.90
21635;DHT22;10979;48.306;9.830;2023-03-30T16:24:35;13.20;99.90
21635;DHT22;10979;48.306;9.830;2023-03-30T16:27:02;13.00;99.90
21635;DHT22;10979;48.306;9.830;2023-03-30T16:29:28;13.00;99.90
21635;DHT22;10979;48.306;9.830;2023-03-30T16:31:53;13.00;99.90
21635;DHT22;10979;48.306;9.830;2023-03-30T16:34:20;12.90;99.90
21635;DHT22;10979;48.306;9.830;2023-03-30T16:36:46;12.80;99.90
21635;DHT22;10979;48.306;9.830;2023-03-30T16:39:17;12.60;99.90
21635;DHT22;10979;48.306;9.830;2023-03-30T16:41:45;12.60;99.90
21635;DHT22;10979;48.306;9.830;2023-03-30T16:44:11;12.50;99.90
21635;DHT22;10979;48.306;9.830;2023-03-30T16:46:37;12.50;99.90
21635;DHT22;10979;48.306;9.830;2023-03-30T16:49:02;12.60;99.90
21635;DHT22;10979;48.306;9.830;2023-03-30T16:51:28;12.60;99.90
21635;DHT22;10979;48.306;9.830;2023-03-30T16:53:53;12.50;99.90
21635;DHT22;10979;48.306;9.830;2023-03-30T16:56:19;12.30;99.90
21635;DHT22;10979;48.306;9.830;2023-03-30T16:58:46;12.10;99.90
21635;DHT22;10979;48.306;9.830;2023-03-30T17:01:12;11.90;99.90
21635;DHT22;10979;48.306;9.830;2023-03-30T17:03:40;11.70;99.90
21635;DHT22;10979;48.306;9.830;2023-03-30T17:06:06;11.70;99.90
21635;DHT22;10979;48.306;9.830;2023-03-30T17:08:31;11.50;99.90
21635;DHT22;10979;48.306;9.830;2023-03-30T17:10:59;11.30;99.90
21635;DHT22;10979;48.306;9.830;2023-03-30T17:13:26;11.20;99.90
21635;DHT22;10979;48.306;9.830;2023-03-30T17:15:52;11.20;99.90
21635;DHT22;10979;48.306;9.830;2023-03-30T17:18:22;11.00;99.90
21635;DHT22;10979;48.306;9.830;2023-03-30T17:20:50;10.90;99.90
21635;DHT22;10979;48.306;9.830;2023-03-30T17:23:18;10.80;99.90
21635;DHT22;10979;48.306;9.830;2023-03-30T17:25:44;10.70;99.90
21635;DHT22;10979;48.306;9.830;2023-03-30T17:28:21;10.50;99.90
21635;DHT22;10979;48.306;9.830;2023-03-30T17:30:47;10.40;99.90
21635;DHT22;10979;48.306;9.830;2023-03-30T17:33:13;10.30;99.90
21635;DHT22;10979;48.306;9.830;2023-03-30T17:35:39;10.30;99.90
21635;DHT22;10979;48.306;9.830;2023-03-30T17:38:06;10.00;99.90
21635;DHT22;10979;48.306;9.830;2023-03-30T17:40:34;9.90;99.90
21635;DHT22;10979;48.306;9.830;2023-03-30T17:43:07;9.70;99.90
21635;DHT22;10979;48.306;9.830;2023-03-30T17:45:35;9.70;99.90
21635;DHT22;10979;48.306;9.830;2023-03-30T17:48:02;9.60;99.90
21635;DHT22;10979;48.306;9.830;2023-03-30T17:50:34;9.40;99.90
21635;DHT22;10979;48.306;9.830;2023-03-30T17:53:00;9.50;99.90
21635;DHT22;10979;48.306;9.830;2023-03-30T17:55:28;9.50;99.90
21635;DHT22;10979;48.306;9.830;2023-03-30T17:57:54;9.50;99.90
21635;DHT22;10979;48.306;9.830;2023-03-30T18:02:46;9.70;99.90
21635;DHT22;10979;48.306;9.830;2023-03-30T18:05:12;9.70;99.90
21635;DHT22;10979;48.306;9.830;2023-03-30T18:07:38;9.70;99.90
21635;DHT22;10979;48.306;9.830;2023-03-30T18:12:39;9.60;99.90
21635;DHT22;10979;48.306;9.830;2023-03-30T18:15:06;9.50;99.90
21635;DHT22;10979;48.306;9.830;2023-03-30T18:17:31;9.50;99.90
21635;DHT22;10979;48.306;9.830;2023-03-30T18:19:57;9.30;99.90
21635;DHT22;10979;48.306;9.830;2023-03-30T18:22:24;9.30;99.90